Historique des stations

Station météo de Chassignolles

Altitude de la station : 290 m







Données météorologiques pour le 30/11/2021
Date
Heure
Températures Humidité Point de rosée Vitesse
du vent
Direction Rafales Windchill Pression Pluviométrie
Cumul
Date
Heure
Températures Humidité Point de rosée Vitesse
du vent
Direction Rafales Windchill Pression Pluviométrie
Cumul
30/11/2021 10:291.9 °C82 %-1.1 °C---1.7 1026 hPa-
30/11/2021 10:151.7 °C82 %-1.1 °C---1.7 1026 hPa-
30/11/2021 10:141.7 °C82 %-1.1 °C---1.7 1026 hPa-
30/11/2021 09:591.6 °C84 %-1.1 °C---1.7 1026 hPa-
30/11/2021 09:451.4 °C83 %-1.1 °C---1.7 1026 hPa-
30/11/2021 09:441.4 °C83 %-1.1 °C---1.7 1025 hPa-
30/11/2021 09:301.2 °C85 %-1.1 °C---1.1 1026 hPa-
30/11/2021 09:291.2 °C85 %-1.1 °C---1.1 1026 hPa-
30/11/2021 09:150.7 °C87 %-1.1 °C---0.6 1025 hPa-
30/11/2021 09:140.7 °C87 %-1.1 °C---0.6 1025 hPa-
30/11/2021 09:000.6 °C87 %-1.1 °C---0.6 1026 hPa-
30/11/2021 08:590.6 °C87 %-1.1 °C---0.6 1026 hPa-
30/11/2021 08:450.5 °C88 %-1.1 °C---0.6 1026 hPa-
30/11/2021 08:440.5 °C88 %-1.1 °C---0.6 1026 hPa-
30/11/2021 08:300.2 °C89 %-1.1 °C---0.0 1026 hPa-
30/11/2021 08:290.2 °C89 %-1.1 °C---0.0 1026 hPa-
30/11/2021 08:15-0.2 °C90 %-1.7 °C---0.0 1026 hPa-
30/11/2021 08:14-0.2 °C90 %-1.7 °C---0.0 1026 hPa-
30/11/2021 08:00-0.5 °C90 %-1.7 °C----0.6 1025 hPa-
30/11/2021 07:59-0.4 °C91 %-1.7 °C----0.6 1025 hPa-
30/11/2021 07:45-0.6 °C91 %-1.7 °C----0.6 1025 hPa-
30/11/2021 07:44-0.6 °C91 %-1.7 °C----0.6 1025 hPa-
30/11/2021 07:30-0.6 °C91 %-1.7 °C----0.6 1025 hPa-
30/11/2021 07:29-0.6 °C91 %-1.7 °C----0.6 1025 hPa-
30/11/2021 07:15-0.5 °C91 %-1.7 °C----0.6 1025 hPa-
30/11/2021 07:14-0.5 °C91 %-1.7 °C----0.6 1025 hPa-
30/11/2021 07:00-0.4 °C91 %-1.7 °C----0.6 1025 hPa-
30/11/2021 06:59-0.4 °C91 %-1.7 °C----0.6 1025 hPa-
30/11/2021 06:45-0.3 °C91 %-1.7 °C---0.0 1025 hPa-
30/11/2021 06:44-0.3 °C91 %-1.7 °C---0.0 1025 hPa-
30/11/2021 06:30-0.3 °C91 %-1.7 °C----0.6 1024 hPa-
30/11/2021 06:15-0.5 °C91 %-1.7 °C----0.6 1025 hPa-
30/11/2021 06:00-0.5 °C92 %-1.7 °C----0.6 1025 hPa-
30/11/2021 05:45-0.7 °C93 %-1.7 °C----0.6 1025 hPa-
30/11/2021 05:30-1.4 °C93 %-2.2 °C----1.7 1025 hPa-
30/11/2021 05:15-1.6 °C93 %-2.2 °C----1.7 1025 hPa-
30/11/2021 05:00-1.8 °C93 %-2.8 °C----1.7 1025 hPa-
30/11/2021 04:45-1.6 °C92 %-2.8 °C----1.7 1025 hPa-
30/11/2021 04:30-1.4 °C93 %-2.2 °C----1.1 1025 hPa-
30/11/2021 04:14-1.2 °C93 %-2.2 °C----1.1 1025 hPa-
30/11/2021 03:59-1.3 °C93 %-2.2 °C----1.1 1025 hPa-
30/11/2021 03:44-1.3 °C92 %-2.2 °C----1.1 1025 hPa-
30/11/2021 03:29-1.1 °C93 %-2.2 °C----1.1 1025 hPa-
30/11/2021 03:14-1.0 °C93 %-1.7 °C----1.1 1025 hPa-
30/11/2021 02:59-0.9 °C93 %-1.7 °C----1.1 1024 hPa-
30/11/2021 02:44-1.0 °C93 %-1.7 °C----1.1 1024 hPa-
30/11/2021 02:29-1.1 °C93 %-2.2 °C----1.1 1024 hPa-
30/11/2021 02:14-1.1 °C93 %-2.2 °C----1.1 1024 hPa-
30/11/2021 01:59-0.9 °C93 %-1.7 °C----1.1 1024 hPa-
30/11/2021 01:44-0.9 °C93 %-1.7 °C----1.1 1024 hPa-
30/11/2021 01:30-0.9 °C93 %-1.7 °C----1.1 1024 hPa-
30/11/2021 01:29-0.9 °C93 %-1.7 °C----1.1 1024 hPa-
30/11/2021 01:15-0.9 °C93 %-1.7 °C----1.1 1024 hPa-
30/11/2021 01:14-0.9 °C93 %-1.7 °C----1.1 1024 hPa-
30/11/2021 01:00-0.8 °C93 %-1.7 °C----0.6 1024 hPa-
30/11/2021 00:59-0.8 °C92 %-1.7 °C----0.6 1024 hPa-
30/11/2021 00:45-0.8 °C93 %-1.7 °C----0.6 1024 hPa-
30/11/2021 00:44-0.8 °C92 %-1.7 °C----0.6 1024 hPa-
30/11/2021 00:30-0.7 °C92 %-1.7 °C----0.6 1024 hPa-
30/11/2021 00:29-0.7 °C92 %-1.7 °C----0.6 1024 hPa-
30/11/2021 00:15-0.6 °C92 %-1.7 °C----0.6 1024 hPa-
30/11/2021 00:14-0.6 °C93 %-1.7 °C----0.6 1024 hPa-
30/11/2021 00:00-0.4 °C93 %-1.7 °C----0.6 1024 hPa-


Minima :

Température : -1.8 °C
Humidité : 82 %
Point de rosée : -2.8 °C
Vent moyen : - km/h
Windchill : -1.7
Pression atm. : 1024 hPa
Maxima :

Température : 1.9 °C
Humidité : 93 %
Point de rosée : -1.1 °C
Vent moyen : 0 km/h
Windchill : 1.7
Pression atm. : 1026 hPa
Rafales max : - km/h
Cumul de pluie sur 24H : 0 mm

Chassignolles est une commune du département Indre (36).
La station météorologique du réseau de l'association la plus proche de Chassignolles est celle de Beddes



Icône Facebook Association Météo Centre Icône Twitter Association Météo Centre Icône Chaîne Youtube Association Météo Centre Icône contact Association Météo Centre Icône Insta Association Météo Centre